createdAt,value
2018-10-03T00:01:53.731Z,83.50
2018-10-03T00:04:28.844Z,83.70
2018-10-03T00:07:11.690Z,83.80
2018-10-03T00:09:48.761Z,84.20
2018-10-03T00:12:19.583Z,84.00
2018-10-03T00:14:59.213Z,84.20
2018-10-03T00:17:32.332Z,84.50
2018-10-03T00:20:06.075Z,84.70
2018-10-03T00:23:04.174Z,84.80
2018-10-03T00:25:37.614Z,85.10
2018-10-03T00:28:08.594Z,84.50
2018-10-03T00:30:44.396Z,84.60
2018-10-03T00:33:22.472Z,83.80
2018-10-03T00:35:56.589Z,84.40
2018-10-03T00:38:27.337Z,83.60
2018-10-03T00:41:00.451Z,83.80
2018-10-03T00:43:36.217Z,84.00
2018-10-03T00:46:09.612Z,83.80
2018-10-03T00:48:41.600Z,84.80
2018-10-03T00:51:36.808Z,84.40
2018-10-03T00:54:08.475Z,83.80
2018-10-03T00:56:38.649Z,84.10
2018-10-03T00:59:12.374Z,83.30
2018-10-03T01:01:43.522Z,83.90
2018-10-03T01:04:14.450Z,83.20
2018-10-03T01:06:50.761Z,82.80
2018-10-03T01:09:28.619Z,83.30
2018-10-03T01:12:09.874Z,82.60
2018-10-03T01:14:47.375Z,82.90
2018-10-03T01:17:19.130Z,83.30
2018-10-03T01:19:48.078Z,82.90
2018-10-03T01:22:22.564Z,83.50
2018-10-03T01:24:54.591Z,83.30
2018-10-03T01:30:05.767Z,83.70
2018-10-03T01:32:33.227Z,83.40
2018-10-03T01:35:00.699Z,83.20
2018-10-03T01:37:28.293Z,84.00
2018-10-03T01:39:55.891Z,83.90
2018-10-03T01:42:23.517Z,83.50
2018-10-03T01:44:51.065Z,83.40
2018-10-03T01:47:18.566Z,83.40
2018-10-03T01:49:46.075Z,82.60
2018-10-03T01:52:13.918Z,83.20
2018-10-03T01:54:41.406Z,83.10
2018-10-03T01:57:09.171Z,83.30
2018-10-03T01:59:36.747Z,83.50
2018-10-03T02:02:04.293Z,83.60
2018-10-03T02:04:31.757Z,83.20
2018-10-03T02:06:59.254Z,83.20
2018-10-03T02:09:26.778Z,83.30
2018-10-03T02:11:54.263Z,83.00
2018-10-03T02:14:21.826Z,83.90
2018-10-03T02:16:49.370Z,84.30
2018-10-03T02:19:17.063Z,84.20
2018-10-03T02:21:44.560Z,83.20
2018-10-03T02:24:12.094Z,83.50
2018-10-03T02:26:39.616Z,83.30
2018-10-03T02:29:07.152Z,84.20
2018-10-03T02:31:34.594Z,83.90
2018-10-03T02:34:02.770Z,83.70
2018-10-03T02:36:30.672Z,84.30
2018-10-03T02:38:58.229Z,84.10
2018-10-03T02:41:25.749Z,84.10
2018-10-03T02:43:53.239Z,84.10
2018-10-03T02:46:20.675Z,84.90
2018-10-03T02:48:48.159Z,84.60
2018-10-03T02:51:15.649Z,84.70
2018-10-03T02:53:43.276Z,84.50
2018-10-03T02:56:10.842Z,84.70
2018-10-03T02:58:38.326Z,84.60
2018-10-03T03:01:05.838Z,85.00
2018-10-03T03:03:33.401Z,84.30
2018-10-03T03:06:00.978Z,84.50
2018-10-03T03:08:28.611Z,84.80
2018-10-03T03:10:56.024Z,84.70
2018-10-03T03:13:23.556Z,84.90
2018-10-03T03:15:51.008Z,85.30
2018-10-03T03:18:18.491Z,84.90
2018-10-03T03:20:45.930Z,84.40
2018-10-03T03:23:13.521Z,85.00
2018-10-03T03:25:41.195Z,85.00
2018-10-03T03:28:08.665Z,84.70
2018-10-03T03:30:36.199Z,84.70
2018-10-03T03:33:03.708Z,85.20
2018-10-03T03:35:31.343Z,84.80
2018-10-03T03:37:58.798Z,84.90
2018-10-03T03:40:26.309Z,85.20
2018-10-03T03:42:53.759Z,84.40
2018-10-03T03:45:21.208Z,84.50
2018-10-03T03:47:48.679Z,84.50
2018-10-03T03:50:16.244Z,85.70
2018-10-03T03:52:43.696Z,84.70
2018-10-03T03:55:11.219Z,84.90
2018-10-03T03:57:38.689Z,85.00
2018-10-03T04:00:06.401Z,85.10
2018-10-03T04:02:34.631Z,85.40
2018-10-03T04:05:02.124Z,85.20
2018-10-03T04:07:29.613Z,84.50
2018-10-03T04:09:57.180Z,84.40
2018-10-03T04:12:24.853Z,84.90
2018-10-03T04:14:52.347Z,85.20
2018-10-03T04:17:19.809Z,84.90
2018-10-03T04:19:47.327Z,85.70
2018-10-03T04:22:14.923Z,85.70
2018-10-03T04:24:42.362Z,85.60
2018-10-03T04:27:10.011Z,86.00
2018-10-03T04:29:37.485Z,85.80
2018-10-03T04:32:05.038Z,85.00
2018-10-03T04:34:32.502Z,85.20
2018-10-03T04:37:00.003Z,85.10
2018-10-03T04:39:27.887Z,86.60
2018-10-03T04:41:55.399Z,86.00
2018-10-03T04:44:22.978Z,86.60
2018-10-03T04:46:50.518Z,86.60
2018-10-03T04:49:18.060Z,86.70
2018-10-03T04:51:45.555Z,87.30
2018-10-03T04:54:13.079Z,87.10
2018-10-03T04:56:40.570Z,87.40
2018-10-03T04:59:08.035Z,87.10
2018-10-03T05:01:35.515Z,86.10
2018-10-03T05:04:03.030Z,85.60
2018-10-03T05:06:30.783Z,85.10
2018-10-03T05:08:58.371Z,84.90
2018-10-03T05:11:25.965Z,84.80
2018-10-03T05:13:53.434Z,85.20
2018-10-03T05:16:20.900Z,85.00
2018-10-03T05:18:48.445Z,86.00
2018-10-03T05:21:15.853Z,85.90
2018-10-03T05:23:43.523Z,85.20
2018-10-03T05:26:10.980Z,84.90
2018-10-03T05:28:38.474Z,86.20
2018-10-03T05:31:06.365Z,85.60
2018-10-03T05:33:34.422Z,86.00
2018-10-03T05:36:01.983Z,86.00
2018-10-03T05:38:29.412Z,86.70
2018-10-03T05:40:57.163Z,87.30
2018-10-03T05:43:24.649Z,86.50
2018-10-03T05:45:52.110Z,87.00
2018-10-03T05:48:19.672Z,87.70
2018-10-03T05:50:47.180Z,87.20
2018-10-03T05:53:14.629Z,87.30
2018-10-03T05:55:42.100Z,87.60
2018-10-03T05:58:09.639Z,87.50
2018-10-03T06:00:37.397Z,87.60
2018-10-03T06:03:06.651Z,87.60
2018-10-03T06:05:36.782Z,87.00
2018-10-03T06:08:04.455Z,87.80
2018-10-03T06:10:33.382Z,87.40
2018-10-03T06:13:03.722Z,87.50
2018-10-03T06:15:32.960Z,87.30
2018-10-03T06:18:08.567Z,87.50
2018-10-03T06:23:22.855Z,86.70
2018-10-03T06:25:54.177Z,87.40
2018-10-03T06:28:32.211Z,87.30
2018-10-03T06:31:07.733Z,86.70
2018-10-03T06:33:40.973Z,86.50
2018-10-03T06:36:18.108Z,86.90
2018-10-03T06:38:52.090Z,86.90
2018-10-03T06:41:20.145Z,86.90
2018-10-03T06:43:51.751Z,86.90
2018-10-03T06:46:21.757Z,87.20
2018-10-03T06:48:52.039Z,87.10
2018-10-03T06:51:22.785Z,86.90
2018-10-03T06:53:59.920Z,87.10
2018-10-03T06:56:32.137Z,87.00
2018-10-03T06:59:04.582Z,86.80
2018-10-03T07:01:34.607Z,86.50
2018-10-03T07:04:15.754Z,86.20
2018-10-03T07:06:44.070Z,86.00
2018-10-03T07:14:33.559Z,85.30
2018-10-03T07:17:13.442Z,85.10
2018-10-03T07:19:48.254Z,84.40
2018-10-03T07:22:22.401Z,84.00
2018-10-03T07:24:54.568Z,82.90
2018-10-03T07:27:32.391Z,83.60
2018-10-03T07:30:13.744Z,83.50
2018-10-03T07:32:53.212Z,82.40
2018-10-03T07:35:24.034Z,82.50
2018-10-03T07:38:06.935Z,81.70
2018-10-03T07:40:37.081Z,81.30
2018-10-03T07:43:17.530Z,80.80
2018-10-03T07:45:48.367Z,80.10
2018-10-03T07:48:37.167Z,79.00
2018-10-03T07:51:15.648Z,78.90
2018-10-03T07:53:45.595Z,78.30
2018-10-03T07:56:34.410Z,78.20
2018-10-03T07:59:09.860Z,77.70
2018-10-03T08:01:45.351Z,76.90
2018-10-03T08:04:20.638Z,76.80
2018-10-03T08:30:31.023Z,76.70
2018-10-03T08:33:03.762Z,65.90
2018-10-03T08:35:33.987Z,65.50
2018-10-03T08:38:04.563Z,66.60
2018-10-03T08:40:33.211Z,64.30
2018-10-03T08:43:01.862Z,64.30
2018-10-03T08:45:30.722Z,64.10
2018-10-03T08:50:51.798Z,63.70
2018-10-03T08:53:20.316Z,63.50
2018-10-03T08:55:52.916Z,62.50
2018-10-03T08:58:27.360Z,63.10
2018-10-03T09:01:01.345Z,64.10
2018-10-03T09:03:31.176Z,65.00
2018-10-03T09:06:00.576Z,65.40
2018-10-03T09:08:35.333Z,62.50
2018-10-03T09:11:05.788Z,62.70
2018-10-03T09:13:34.309Z,60.90
2018-10-03T09:16:03.068Z,61.10
2018-10-03T09:18:34.752Z,59.80
2018-10-03T09:21:05.840Z,59.90
2018-10-03T09:23:53.999Z,60.00
2018-10-03T10:53:33.439Z,60.70
2018-10-03T10:58:48.707Z,56.50
2018-10-03T11:01:19.104Z,56.70
2018-10-03T11:04:05.965Z,56.50
2018-10-03T11:06:44.445Z,56.00
2018-10-03T11:12:00.248Z,55.70
2018-10-03T11:14:30.618Z,55.50
2018-10-03T11:17:00.840Z,55.50
2018-10-03T11:19:37.325Z,55.60
2018-10-03T11:22:12.163Z,55.50
2018-10-03T11:24:48.021Z,55.90
2018-10-03T11:27:25.391Z,56.10
2018-10-03T11:30:03.617Z,56.40
2018-10-03T11:32:44.826Z,55.90
2018-10-03T11:35:16.587Z,55.90
2018-10-03T11:37:48.015Z,55.80
2018-10-03T11:40:18.028Z,55.30
2018-10-03T11:42:59.531Z,55.70
2018-10-03T11:45:29.948Z,55.00
2018-10-03T11:48:06.343Z,54.30
2018-10-03T11:50:36.900Z,54.90
2018-10-03T11:53:12.958Z,52.90
2018-10-03T11:55:41.532Z,53.20
2018-10-03T11:58:20.418Z,52.60
2018-10-03T12:01:00.748Z,52.90
2018-10-03T12:03:41.509Z,52.60
2018-10-03T12:06:15.983Z,51.50
2018-10-03T12:08:52.049Z,52.10
2018-10-03T12:11:21.640Z,52.30
2018-10-03T12:13:59.485Z,50.90
2018-10-03T12:16:39.856Z,51.00
2018-10-03T12:19:16.439Z,49.70
2018-10-03T12:21:49.445Z,50.20
2018-10-03T12:24:24.615Z,50.40
2018-10-03T12:27:04.012Z,50.00
2018-10-03T12:29:38.753Z,48.40
2018-10-03T12:32:10.651Z,50.10
2018-10-03T12:34:46.202Z,50.80
2018-10-03T12:37:15.346Z,51.80
2018-10-03T12:39:47.207Z,52.60
2018-10-03T12:42:22.053Z,52.20
2018-10-03T12:44:52.341Z,52.10
2018-10-03T12:47:23.098Z,52.20
2018-10-03T12:49:57.830Z,52.50
2018-10-03T12:52:29.026Z,52.40
2018-10-03T12:55:01.860Z,51.50
2018-10-03T12:57:57.149Z,52.20
2018-10-03T13:00:31.072Z,52.10
2018-10-03T13:21:25.245Z,50.60
2018-10-03T13:24:03.896Z,50.30
2018-10-03T13:26:34.700Z,49.80
2018-10-03T13:29:07.258Z,49.80
2018-10-03T13:31:41.154Z,49.30
2018-10-03T13:34:11.294Z,48.80
2018-10-03T13:36:41.430Z,47.30
2018-10-03T13:39:13.616Z,46.70
2018-10-03T13:41:42.744Z,46.80
2018-10-03T13:44:10.840Z,46.70
2018-10-03T13:46:39.360Z,47.30
2018-10-03T13:49:12.772Z,48.50
2018-10-03T13:54:59.883Z,50.30
2018-10-03T13:57:37.408Z,50.60
2018-10-03T14:00:41.235Z,50.80
2018-10-03T14:06:17.889Z,51.50
2018-10-03T14:09:03.312Z,51.90
2018-10-03T14:22:37.299Z,50.80
2018-10-03T14:28:27.877Z,50.00
2018-10-03T14:36:54.222Z,48.70
2018-10-03T14:42:07.597Z,48.90
2018-10-03T14:44:42.397Z,48.70
2018-10-03T14:47:12.283Z,49.20
2018-10-03T14:49:42.978Z,49.70
2018-10-03T14:52:16.729Z,49.90
2018-10-03T14:54:48.624Z,50.20
2018-10-03T15:25:48.306Z,51.30
2018-10-03T15:38:04.562Z,50.60
2018-10-03T15:40:33.827Z,50.70
2018-10-03T15:43:03.132Z,50.20
2018-10-03T15:45:32.052Z,49.70
2018-10-03T15:48:00.144Z,50.30
2018-10-03T15:50:28.107Z,50.30
2018-10-03T15:53:01.889Z,50.60
2018-10-03T15:55:36.771Z,50.60
2018-10-03T15:58:06.289Z,51.00
2018-10-03T16:00:36.433Z,51.00
2018-10-03T16:03:26.281Z,50.90
2018-10-03T16:08:41.845Z,49.60
2018-10-03T16:11:12.444Z,50.30
2018-10-03T16:13:44.090Z,50.70
2018-10-03T16:16:13.219Z,51.50
2018-10-03T16:18:51.332Z,51.50
2018-10-03T16:21:30.385Z,51.30
2018-10-03T16:24:01.405Z,51.60
2018-10-03T16:26:35.079Z,51.50
2018-10-03T16:29:04.920Z,52.40
2018-10-03T16:31:36.480Z,51.50
2018-10-03T16:34:07.098Z,52.20
2018-10-03T16:36:44.783Z,51.70
2018-10-03T16:39:13.975Z,52.00
2018-10-03T17:09:05.142Z,55.20
2018-10-03T17:11:33.728Z,55.30
2018-10-03T17:14:35.133Z,55.90
2018-10-03T17:22:28.277Z,56.20
2018-10-03T17:25:03.740Z,56.60
2018-10-03T17:27:38.618Z,56.60
2018-10-03T17:30:10.514Z,56.60
2018-10-03T17:32:43.631Z,57.10
2018-10-03T17:35:19.294Z,57.20
2018-10-03T17:37:49.367Z,57.40
2018-10-03T17:40:22.554Z,57.80
2018-10-03T17:42:51.296Z,57.60
2018-10-03T17:45:23.730Z,57.80
2018-10-03T17:48:07.598Z,58.20
2018-10-03T17:50:39.270Z,58.50
2018-10-03T17:53:16.086Z,58.50
2018-10-03T17:55:47.831Z,58.70
2018-10-03T17:58:19.007Z,59.30
2018-10-03T18:01:05.325Z,59.20
2018-10-03T18:03:42.129Z,59.60
2018-10-03T18:06:25.156Z,59.50
2018-10-03T18:09:05.988Z,59.50
2018-10-03T18:11:46.959Z,60.20
2018-10-03T18:14:22.721Z,60.30
2018-10-03T18:17:11.158Z,60.40
2018-10-03T18:19:40.211Z,60.80
2018-10-03T18:22:14.500Z,61.00
2018-10-03T18:24:44.940Z,61.10
2018-10-03T18:27:15.364Z,61.40
2018-10-03T18:29:48.237Z,61.70
2018-10-03T18:32:17.761Z,61.60
2018-10-03T18:34:48.007Z,61.70
2018-10-03T18:37:16.538Z,62.00
2018-10-03T18:39:44.793Z,62.20
2018-10-03T18:42:14.529Z,62.30
2018-10-03T18:44:51.886Z,62.60
2018-10-03T18:47:20.080Z,62.80
2018-10-03T18:49:48.451Z,63.20
2018-10-03T18:52:19.413Z,63.50
2018-10-03T18:54:49.267Z,63.90
2018-10-03T18:57:29.403Z,63.80
2018-10-03T19:00:00.749Z,63.90
2018-10-03T19:02:35.633Z,63.90
2018-10-03T19:05:05.790Z,64.30
2018-10-03T19:07:37.833Z,64.30
2018-10-03T19:10:09.890Z,64.40
2018-10-03T19:12:42.570Z,64.70
2018-10-03T19:15:13.687Z,64.90
2018-10-03T19:17:45.025Z,64.70
2018-10-03T19:20:13.932Z,64.80
2018-10-03T19:22:43.323Z,64.70
2018-10-03T19:25:14.383Z,64.70
2018-10-03T19:27:49.348Z,64.70
2018-10-03T19:30:18.270Z,64.80
2018-10-03T19:32:52.042Z,64.70
2018-10-03T19:35:32.278Z,64.70
2018-10-03T19:38:03.566Z,65.10
2018-10-03T19:40:33.927Z,65.00
2018-10-03T19:45:38.904Z,65.40
2018-10-03T19:48:08.687Z,65.70
2018-10-03T19:50:36.263Z,65.90
2018-10-03T19:53:06.068Z,66.30
2018-10-03T19:55:33.692Z,66.00
2018-10-03T19:58:03.084Z,66.20
2018-10-03T20:00:31.862Z,65.80
2018-10-03T20:02:59.543Z,65.90
2018-10-03T20:05:27.890Z,65.90
2018-10-03T20:07:55.518Z,65.70
2018-10-03T20:10:23.926Z,66.00
2018-10-03T20:12:51.684Z,66.50
2018-10-03T20:15:20.439Z,66.60
2018-10-03T20:17:48.139Z,66.70
2018-10-03T20:20:15.873Z,66.70
2018-10-03T20:22:43.733Z,66.60
2018-10-03T20:25:12.489Z,66.10
2018-10-03T20:27:40.971Z,66.10
2018-10-03T20:30:09.805Z,66.40
2018-10-03T20:32:37.358Z,66.90
2018-10-03T20:35:04.970Z,67.30
2018-10-03T20:37:33.257Z,67.30
2018-10-03T20:40:01.508Z,67.30
2018-10-03T20:42:29.226Z,67.10
2018-10-03T20:44:56.884Z,67.40
2018-10-03T20:47:25.075Z,67.50
2018-10-03T20:49:52.771Z,67.70
2018-10-03T20:52:20.450Z,67.60
2018-10-03T20:54:48.381Z,67.70
2018-10-03T20:57:16.937Z,67.40
2018-10-03T20:59:46.086Z,67.30
2018-10-03T21:02:15.296Z,67.30
2018-10-03T21:04:42.849Z,67.30
2018-10-03T21:07:11.276Z,67.40
2018-10-03T21:09:41.045Z,67.50
2018-10-03T21:12:09.683Z,67.80
2018-10-03T21:14:37.448Z,67.80
2018-10-03T21:17:05.148Z,67.90
2018-10-03T21:19:32.738Z,67.70
2018-10-03T21:22:00.401Z,67.90
2018-10-03T21:24:27.983Z,67.80
2018-10-03T21:26:55.646Z,67.80
2018-10-03T21:29:23.187Z,67.90
2018-10-03T21:31:51.161Z,68.00
2018-10-03T21:34:21.739Z,68.30
2018-10-03T21:36:49.279Z,68.10
2018-10-03T21:39:16.886Z,67.90
2018-10-03T21:41:44.419Z,68.10
2018-10-03T21:44:11.954Z,68.00
2018-10-03T21:46:39.544Z,67.80
2018-10-03T21:49:07.184Z,68.00
2018-10-03T21:51:34.739Z,68.30
2018-10-03T21:54:02.394Z,68.40
2018-10-03T21:56:29.964Z,69.20
2018-10-03T21:58:57.615Z,68.20
2018-10-03T22:01:25.217Z,68.30
2018-10-03T22:03:53.094Z,68.60
2018-10-03T22:06:20.598Z,68.50
2018-10-03T22:08:48.212Z,68.20
2018-10-03T22:11:15.834Z,68.30
2018-10-03T22:13:43.504Z,68.40
2018-10-03T22:16:10.987Z,68.60
2018-10-03T22:18:38.547Z,68.70
2018-10-03T22:21:06.602Z,68.80
2018-10-03T22:23:34.142Z,68.80
2018-10-03T22:26:01.664Z,68.80
2018-10-03T22:28:29.258Z,68.30
2018-10-03T22:30:56.755Z,68.20
2018-10-03T22:33:24.259Z,68.10
2018-10-03T22:35:51.765Z,68.40
2018-10-03T22:38:19.322Z,68.80
2018-10-03T22:40:46.871Z,69.10
2018-10-03T22:43:14.423Z,69.40
2018-10-03T22:45:41.904Z,69.30
2018-10-03T22:48:09.487Z,69.10
2018-10-03T22:50:37.199Z,68.80
2018-10-03T22:53:04.683Z,68.60
2018-10-03T22:55:32.356Z,68.80
2018-10-03T22:57:59.919Z,68.50
2018-10-03T23:00:27.500Z,68.40
2018-10-03T23:02:55.123Z,68.60
2018-10-03T23:05:22.663Z,68.70
2018-10-03T23:07:50.291Z,68.80
2018-10-03T23:10:17.926Z,68.80
2018-10-03T23:12:45.491Z,68.80
2018-10-03T23:15:13.005Z,69.00
2018-10-03T23:17:40.614Z,69.00
2018-10-03T23:20:08.117Z,69.00
2018-10-03T23:22:35.652Z,68.80
2018-10-03T23:25:03.235Z,68.90
2018-10-03T23:27:30.766Z,68.80
2018-10-03T23:29:58.876Z,68.50
2018-10-03T23:32:26.407Z,68.00
2018-10-03T23:34:53.891Z,67.90
2018-10-03T23:37:21.467Z,67.60
2018-10-03T23:39:48.923Z,67.20
2018-10-03T23:42:16.484Z,67.30
2018-10-03T23:44:43.977Z,67.60
2018-10-03T23:47:11.572Z,67.60
2018-10-03T23:49:39.118Z,67.50
2018-10-03T23:52:06.956Z,67.80
2018-10-03T23:54:34.441Z,68.00
2018-10-03T23:57:06.187Z,68.30
2018-10-03T23:59:33.699Z,68.30
